Time;durP1;ratioP1;P1;durP2;ratioP2;P2;SDS_P1;SDS_P2;PMS_P1;PMS_P2;Temp;Humidity;BMP_temperature;BMP_pressure;BME280_temperature;BME280_humidity;BME280_pressure;Samples;Min_cycle;Max_cycle;Signal;HPM_P1;HPM_P2
2022/04/19 00:00:30;;;;;;;17.23;7.85;;;11.70;68.80;;;;;;4885949;29;20098;-80
2022/04/19 00:02:57;;;;;;;12.80;7.40;;;11.60;68.90;;;;;;4882894;29;20053;-80
2022/04/19 00:05:23;;;;;;;15.85;8.23;;;11.60;68.90;;;;;;4881923;29;20057;-80
2022/04/19 00:07:50;;;;;;;12.02;7.72;;;11.60;68.90;;;;;;4885828;29;20100;-80
2022/04/19 00:10:17;;;;;;;12.13;7.18;;;11.60;68.90;;;;;;4886036;29;20049;-80
2022/04/19 00:12:45;;;;;;;12.48;7.95;;;11.60;68.90;;;;;;4885815;29;21069;-80
2022/04/19 00:15:13;;;;;;;15.82;8.35;;;11.50;68.90;;;;;;4884501;29;20048;-80
2022/04/19 00:17:40;;;;;;;14.60;8.55;;;11.60;68.90;;;;;;4881614;29;20124;-80
2022/04/19 00:20:07;;;;;;;14.25;8.55;;;11.50;68.90;;;;;;4883958;29;20133;-80
2022/04/19 00:22:34;;;;;;;13.73;7.90;;;11.50;68.90;;;;;;4885828;29;20459;-79
2022/04/19 00:25:01;;;;;;;13.88;7.40;;;11.50;69.00;;;;;;4885948;29;20120;-79
2022/04/19 00:27:28;;;;;;;13.02;8.20;;;11.50;69.00;;;;;;4885568;29;20052;-81
2022/04/19 00:29:55;;;;;;;13.32;7.82;;;11.40;68.90;;;;;;4882398;29;20500;-80
2022/04/19 00:32:23;;;;;;;12.05;7.80;;;11.40;69.00;;;;;;4884560;29;20053;-80
2022/04/19 00:34:51;;;;;;;12.68;8.00;;;11.40;69.00;;;;;;4889146;29;20048;-80
2022/04/19 00:37:19;;;;;;;14.20;8.35;;;11.40;69.00;;;;;;4889628;29;20056;-80
2022/04/19 00:39:46;;;;;;;13.32;8.32;;;11.40;69.00;;;;;;4889569;29;20049;-80
2022/04/19 00:42:12;;;;;;;12.85;8.23;;;11.40;69.10;;;;;;4887996;29;20049;-80
2022/04/19 00:44:39;;;;;;;13.45;7.47;;;11.30;69.10;;;;;;4885049;29;20112;-80
2022/04/19 00:47:10;;;;;;;12.43;7.60;;;11.30;69.10;;;;;;4887214;29;20053;-80
2022/04/19 00:49:40;;;;;;;13.05;8.13;;;11.30;69.10;;;;;;4889522;29;20056;-80
2022/04/19 00:52:08;;;;;;;11.65;7.00;;;11.30;69.10;;;;;;4889281;29;20108;-80
2022/04/19 00:54:35;;;;;;;12.63;7.28;;;11.30;69.10;;;;;;4889349;29;20112;-80
2022/04/19 00:57:03;;;;;;;13.38;8.05;;;11.30;69.20;;;;;;4886340;29;20056;-80
2022/04/19 00:59:32;;;;;;;13.85;7.65;;;11.30;69.20;;;;;;4884880;29;20566;-80
2022/04/19 01:02:00;;;;;;;13.05;7.75;;;11.30;69.20;;;;;;4887774;29;20067;-81
2022/04/19 01:04:27;;;;;;;12.55;7.50;;;11.20;69.20;;;;;;4889161;29;20463;-81
2022/04/19 01:06:55;;;;;;;11.18;7.15;;;11.20;69.20;;;;;;4889129;29;20053;-80
2022/04/19 01:09:23;;;;;;;11.98;7.80;;;11.20;69.20;;;;;;4888910;29;20530;-80
2022/04/19 01:14:37;;;;;;;13.55;7.70;;;11.20;69.30;;;;;;4898217;29;20060;-80
2022/04/19 01:17:07;;;;;;;13.60;6.72;;;11.10;69.30;;;;;;4886970;29;20113;-80
2022/04/19 01:19:40;;;;;;;11.18;7.10;;;11.10;69.30;;;;;;4889064;29;20447;-79
2022/04/19 01:22:07;;;;;;;13.35;6.88;;;11.10;69.40;;;;;;4888956;29;20097;-79
2022/04/19 01:24:36;;;;;;;11.25;6.63;;;11.10;69.40;;;;;;4888725;29;20055;-82
2022/04/19 01:27:03;;;;;;;16.48;8.15;;;11.10;69.40;;;;;;4886086;29;20052;-81
2022/04/19 01:29:30;;;;;;;15.13;7.72;;;11.00;69.40;;;;;;4884401;29;20053;-80
2022/04/19 01:32:06;;;;;;;12.10;7.07;;;11.00;69.50;;;;;;4885245;29;20136;-81
2022/04/19 01:34:33;;;;;;;12.60;6.43;;;11.00;69.50;;;;;;4888548;29;20053;-80
2022/04/19 01:37:00;;;;;;;14.98;6.55;;;10.90;69.50;;;;;;4888386;29;20049;-80
2022/04/19 01:42:13;;;;;;;12.50;7.10;;;10.90;69.60;;;;;;4886905;29;20053;-80
2022/04/19 01:44:41;;;;;;;14.48;6.70;;;10.90;69.70;;;;;;4883442;29;20475;-80
2022/04/19 01:47:07;;;;;;;12.15;6.82;;;10.90;69.70;;;;;;4886097;29;20049;-80
2022/04/19 01:49:35;;;;;;;12.90;6.38;;;10.90;69.80;;;;;;4887238;29;20053;-79
2022/04/19 01:52:03;;;;;;;12.80;6.30;;;10.80;69.80;;;;;;4888216;29;20053;-80
2022/04/19 01:54:30;;;;;;;13.95;6.20;;;10.90;69.90;;;;;;4887948;29;20048;-80
2022/04/19 01:56:58;;;;;;;13.10;6.60;;;10.80;69.90;;;;;;4885164;29;20048;-80
2022/04/19 01:59:25;;;;;;;13.23;6.68;;;10.80;69.90;;;;;;4883998;29;20048;-80
2022/04/19 02:01:51;;;;;;;14.18;7.10;;;10.80;70.00;;;;;;4886576;29;20594;-80
2022/04/19 02:04:19;;;;;;;12.75;6.50;;;10.70;70.00;;;;;;4887989;29;20060;-80
2022/04/19 02:06:45;;;;;;;14.57;6.20;;;10.70;70.00;;;;;;4888100;29;20045;-80
2022/04/19 02:09:12;;;;;;;11.95;6.00;;;10.70;70.00;;;;;;4886420;29;20052;-80
2022/04/19 02:11:39;;;;;;;11.77;6.38;;;10.60;70.10;;;;;;4883508;29;24276;-80
2022/04/19 02:14:06;;;;;;;13.13;6.30;;;10.70;70.10;;;;;;4885576;29;20116;-80
2022/04/19 02:16:33;;;;;;;11.35;6.32;;;10.60;70.10;;;;;;4887759;29;20061;-80
2022/04/19 02:19:00;;;;;;;12.75;6.40;;;10.60;70.20;;;;;;4888008;29;20045;-80
2022/04/19 02:21:27;;;;;;;12.20;5.80;;;10.60;70.20;;;;;;4887782;29;20048;-80
2022/04/19 02:23:54;;;;;;;11.77;5.90;;;10.60;70.20;;;;;;4883797;29;20044;-80
2022/04/19 02:26:23;;;;;;;11.82;6.15;;;10.60;70.20;;;;;;4883649;29;20056;-80
2022/04/19 02:28:51;;;;;;;14.52;7.40;;;10.50;70.20;;;;;;4887122;29;20524;-80
2022/04/19 02:31:18;;;;;;;14.25;6.60;;;10.50;70.20;;;;;;4886296;29;20395;-79
2022/04/19 02:33:45;;;;;;;14.73;6.60;;;10.50;70.30;;;;;;4887499;29;20399;-82
2022/04/19 02:36:12;;;;;;;13.05;5.72;;;10.50;70.30;;;;;;4886213;29;20513;-80
2022/04/19 02:38:38;;;;;;;12.88;6.40;;;10.50;70.30;;;;;;4882950;29;20057;-80
2022/04/19 02:41:05;;;;;;;11.88;6.40;;;10.50;70.40;;;;;;4884350;29;20053;-80
2022/04/19 02:43:32;;;;;;;11.70;6.28;;;10.40;70.40;;;;;;4887431;29;20045;-80
2022/04/19 02:45:59;;;;;;;12.30;7.20;;;10.40;70.50;;;;;;4887327;29;20065;-81
2022/04/19 02:48:28;;;;;;;13.38;6.75;;;10.40;70.50;;;;;;4887408;29;20044;-80
2022/04/19 02:50:55;;;;;;;13.52;6.45;;;10.40;70.50;;;;;;4883937;29;20461;-80
2022/04/19 02:53:22;;;;;;;10.07;6.30;;;10.30;70.60;;;;;;4882489;29;20053;-80
2022/04/19 02:55:49;;;;;;;16.83;7.30;;;10.30;70.60;;;;;;4885821;29;20057;-80
2022/04/19 02:58:15;;;;;;;12.25;6.38;;;10.30;70.70;;;;;;4887072;29;20053;-80
2022/04/19 03:00:42;;;;;;;15.50;7.75;;;10.30;70.70;;;;;;4885969;29;20554;-80
2022/04/19 03:03:15;;;;;;;14.63;7.55;;;10.30;70.70;;;;;;4886009;29;20052;-80
2022/04/19 03:05:42;;;;;;;14.23;7.28;;;10.30;70.80;;;;;;4882627;29;20080;-79
2022/04/19 03:08:09;;;;;;;15.43;6.32;;;10.20;70.80;;;;;;4884225;29;20061;-80
2022/04/19 03:10:36;;;;;;;16.35;7.45;;;10.20;70.90;;;;;;4886879;29;20080;-80
2022/04/19 03:13:03;;;;;;;13.25;7.45;;;10.20;70.90;;;;;;4886605;29;20069;-80
2022/04/19 03:15:34;;;;;;;14.00;7.15;;;10.20;70.90;;;;;;4886878;29;20087;-80
2022/04/19 03:18:01;;;;;;;12.18;7.10;;;10.10;71.00;;;;;;4884181;29;20053;-80
2022/04/19 03:20:29;;;;;;;14.60;7.30;;;10.10;71.00;;;;;;4882511;29;20200;-80
2022/04/19 03:28:26;;;;;;;16.00;7.82;;;10.10;71.20;;;;;;4886660;29;20112;-81
2022/04/19 03:30:53;;;;;;;15.35;7.82;;;10.00;71.20;;;;;;4886644;29;20049;-81
2022/04/19 03:33:20;;;;;;;16.73;7.57;;;10.00;71.30;;;;;;4886055;29;20076;-81
2022/04/19 03:35:47;;;;;;;13.00;7.43;;;10.00;71.30;;;;;;4882111;29;20537;-81
2022/04/19 03:38:14;;;;;;;15.60;7.88;;;10.00;71.30;;;;;;4883015;29;20578;-81
2022/04/19 03:40:40;;;;;;;13.88;7.15;;;10.00;71.40;;;;;;4886309;29;20107;-80
2022/04/19 03:43:08;;;;;;;14.50;7.68;;;9.90;71.40;;;;;;4886454;29;20112;-80
2022/04/19 03:45:35;;;;;;;12.63;7.25;;;9.90;71.50;;;;;;4886381;29;20453;-80
2022/04/19 03:48:02;;;;;;;16.25;8.05;;;9.90;71.50;;;;;;4883796;29;20101;-80
2022/04/19 03:50:29;;;;;;;15.20;8.68;;;9.90;71.60;;;;;;4881829;29;20053;-81
2022/04/19 03:52:56;;;;;;;14.98;7.45;;;9.90;71.60;;;;;;4885333;29;20061;-80
2022/04/19 03:55:23;;;;;;;17.95;8.38;;;9.90;71.70;;;;;;4886295;29;20049;-80
2022/04/19 03:57:50;;;;;;;14.30;7.47;;;9.90;71.70;;;;;;4886446;29;20132;-80
2022/04/19 04:00:17;;;;;;;15.10;7.43;;;9.90;71.80;;;;;;4885598;29;20478;-80
2022/04/19 04:02:44;;;;;;;15.05;7.85;;;9.90;71.80;;;;;;4881780;29;20159;-80
2022/04/19 04:05:11;;;;;;;16.02;8.05;;;9.90;71.80;;;;;;4882978;29;20099;-80
2022/04/19 04:07:39;;;;;;;14.93;7.47;;;9.80;71.80;;;;;;4885874;29;20053;-80
2022/04/19 04:10:06;;;;;;;15.10;7.60;;;9.80;71.90;;;;;;4886046;29;20052;-80
2022/04/19 04:12:33;;;;;;;14.20;7.60;;;9.80;71.80;;;;;;4885675;29;20060;-80
2022/04/19 04:15:01;;;;;;;17.20;7.93;;;9.80;71.90;;;;;;4883256;29;20096;-80
2022/04/19 04:17:28;;;;;;;16.70;7.63;;;9.70;71.80;;;;;;4881618;29;20052;-80
2022/04/19 04:19:58;;;;;;;17.90;7.55;;;9.70;71.80;;;;;;4884836;29;20574;-80
2022/04/19 04:22:26;;;;;;;16.40;7.95;;;9.70;71.80;;;;;;4885928;29;20053;-80
2022/04/19 04:24:53;;;;;;;17.25;7.70;;;9.70;71.80;;;;;;4885930;29;20112;-80
2022/04/19 04:27:20;;;;;;;14.52;7.05;;;9.70;71.80;;;;;;4885647;29;20096;-80
2022/04/19 04:29:47;;;;;;;14.60;8.45;;;9.60;71.80;;;;;;4881534;29;20044;-80
2022/04/19 04:32:14;;;;;;;13.95;7.88;;;9.60;71.70;;;;;;4882824;29;20056;-80
2022/04/19 04:34:41;;;;;;;16.15;8.40;;;9.60;71.70;;;;;;4885514;29;20053;-80
2022/04/19 04:37:08;;;;;;;14.48;8.07;;;9.60;71.70;;;;;;4886019;29;20057;-80
2022/04/19 04:39:34;;;;;;;17.63;8.55;;;9.60;71.70;;;;;;4885915;29;20053;-80
2022/04/19 04:42:02;;;;;;;15.43;7.88;;;9.50;71.70;;;;;;4883083;29;20097;-80
2022/04/19 04:44:29;;;;;;;14.32;8.00;;;9.50;71.80;;;;;;4881500;29;20064;-80
2022/04/19 04:49:41;;;;;;;18.17;8.73;;;9.40;71.80;;;;;;4885614;29;20396;-80
2022/04/19 04:52:10;;;;;;;14.32;7.78;;;9.40;71.80;;;;;;4885405;29;20519;-80
2022/04/19 04:54:39;;;;;;;15.52;8.07;;;9.40;71.90;;;;;;4885677;29;20045;-80
2022/04/19 04:57:07;;;;;;;16.45;7.72;;;9.40;71.90;;;;;;4883727;29;20071;-80
2022/04/19 04:59:34;;;;;;;17.08;7.47;;;9.40;72.00;;;;;;4881415;29;20052;-80
2022/04/19 05:02:03;;;;;;;15.95;8.80;;;9.40;72.10;;;;;;4882154;29;20056;-80
2022/04/19 05:04:32;;;;;;;16.95;8.48;;;9.40;72.10;;;;;;4885285;29;20084;-80
2022/04/19 05:07:01;;;;;;;16.85;8.73;;;9.40;72.20;;;;;;4885668;29;20048;-80
2022/04/19 05:09:28;;;;;;;15.48;8.73;;;9.40;72.20;;;;;;4885595;29;20069;-80
2022/04/19 05:11:55;;;;;;;18.52;8.85;;;9.30;72.30;;;;;;4882057;29;20052;-80
2022/04/19 05:14:22;;;;;;;20.42;8.63;;;9.30;72.40;;;;;;4881369;29;20589;-80
2022/04/19 05:16:49;;;;;;;16.40;8.77;;;9.30;72.40;;;;;;4884956;29;20537;-80
2022/04/19 05:19:16;;;;;;;16.40;8.10;;;9.30;72.50;;;;;;4886544;29;20053;-80
2022/04/19 05:21:45;;;;;;;18.48;8.85;;;9.30;72.60;;;;;;4889012;29;20059;-80
2022/04/19 05:24:12;;;;;;;19.02;8.48;;;9.20;72.70;;;;;;4887435;29;20057;-80
2022/04/19 05:26:39;;;;;;;19.17;9.40;;;9.20;72.80;;;;;;4884425;29;20068;-80
2022/04/19 05:29:06;;;;;;;17.95;8.95;;;9.20;72.90;;;;;;4886703;29;20056;-80
2022/04/19 05:31:33;;;;;;;15.38;8.32;;;9.20;73.00;;;;;;4888650;29;20057;-80
2022/04/19 05:34:00;;;;;;;15.98;9.00;;;9.20;73.10;;;;;;4888248;29;20053;-80
2022/04/19 05:36:27;;;;;;;18.08;9.57;;;9.20;73.20;;;;;;4888736;29;20049;-80
2022/04/19 05:38:54;;;;;;;13.75;8.45;;;9.20;73.30;;;;;;4885074;29;20498;-80
2022/04/19 05:41:21;;;;;;;17.05;9.25;;;9.20;73.40;;;;;;4884420;29;20057;-80
2022/04/19 05:43:49;;;;;;;15.43;8.02;;;9.20;73.50;;;;;;4888050;29;20053;-80
2022/04/19 05:46:17;;;;;;;16.25;8.60;;;9.20;73.60;;;;;;4888560;29;20056;-80
2022/04/19 05:48:45;;;;;;;18.00;9.13;;;9.30;73.80;;;;;;4888309;29;20061;-80
2022/04/19 05:51:12;;;;;;;17.83;8.77;;;9.30;73.90;;;;;;4887070;29;20053;-80
2022/04/19 05:53:40;;;;;;;18.35;9.13;;;9.30;74.00;;;;;;4883840;29;20109;-80
2022/04/19 05:56:07;;;;;;;18.33;8.25;;;9.30;74.10;;;;;;4886226;29;20104;-80
2022/04/19 05:58:34;;;;;;;14.50;8.38;;;9.30;74.20;;;;;;4888383;29;20049;-81
2022/04/19 06:01:01;;;;;;;14.20;8.25;;;9.30;74.30;;;;;;4887905;29;20473;-80
2022/04/19 06:06:15;;;;;;;14.38;7.70;;;9.40;74.50;;;;;;4886984;29;20045;-80
2022/04/19 06:08:45;;;;;;;16.20;7.88;;;9.40;74.60;;;;;;4883516;29;20100;-80
2022/04/19 06:11:12;;;;;;;14.90;7.85;;;9.40;74.70;;;;;;4885229;29;20053;-81
2022/04/19 06:13:40;;;;;;;12.95;7.30;;;9.50;74.80;;;;;;4887650;29;20068;-80
2022/04/19 06:16:08;;;;;;;15.68;8.30;;;9.50;74.90;;;;;;4887566;29;20061;-81
2022/04/19 06:18:36;;;;;;;14.00;8.10;;;9.50;75.00;;;;;;4887969;29;20052;-82
2022/04/19 06:21:07;;;;;;;12.65;7.90;;;9.50;75.10;;;;;;4885393;29;20052;-81
2022/04/19 06:23:34;;;;;;;14.32;7.75;;;9.60;75.20;;;;;;4883459;29;20101;-81
2022/04/19 06:26:02;;;;;;;13.70;7.57;;;9.60;75.20;;;;;;4884331;29;20057;-81
2022/04/19 06:28:29;;;;;;;13.70;7.28;;;9.60;75.30;;;;;;4887570;29;20057;-81
2022/04/19 06:30:55;;;;;;;11.95;6.85;;;9.70;75.30;;;;;;4894179;29;20048;-81
2022/04/19 06:33:22;;;;;;;11.52;6.57;;;9.70;75.30;;;;;;4896144;29;20045;-81
2022/04/19 06:35:49;;;;;;;12.05;6.68;;;9.70;75.40;;;;;;4880111;29;20544;-81
2022/04/19 06:38:16;;;;;;;10.85;6.40;;;9.70;75.40;;;;;;4898473;29;20101;-81
2022/04/19 06:40:43;;;;;;;9.13;5.78;;;9.80;75.40;;;;;;4894269;29;20048;-81
2022/04/19 06:43:11;;;;;;;11.70;6.57;;;9.80;75.50;;;;;;4894387;29;20052;-81
2022/04/19 06:45:39;;;;;;;9.43;5.45;;;9.90;75.50;;;;;;4893977;29;20531;-80
2022/04/19 06:48:06;;;;;;;9.35;5.90;;;9.90;75.50;;;;;;4895526;29;20403;-81
2022/04/19 06:50:33;;;;;;;10.52;5.75;;;9.90;75.60;;;;;;4895352;29;20525;-81
2022/04/19 06:53:00;;;;;;;11.20;5.68;;;9.90;75.60;;;;;;4895213;29;20063;-81
2022/04/19 06:55:27;;;;;;;10.88;5.80;;;9.90;75.60;;;;;;4896022;29;20048;-81
2022/04/19 06:57:54;;;;;;;8.82;5.07;;;9.90;75.70;;;;;;4896607;29;20056;-81
2022/04/19 07:00:21;;;;;;;11.05;5.03;;;10.00;75.70;;;;;;4893757;29;20513;-81
2022/04/19 07:02:48;;;;;;;8.35;5.38;;;10.00;75.80;;;;;;4894557;29;20068;-81
2022/04/19 07:05:16;;;;;;;7.85;5.15;;;10.00;75.80;;;;;;4897551;29;20057;-81
2022/04/19 07:07:43;;;;;;;11.15;5.60;;;10.00;75.80;;;;;;4895335;29;20056;-82
2022/04/19 07:10:11;;;;;;;8.25;5.00;;;10.10;75.80;;;;;;4897520;29;20055;-81
2022/04/19 07:12:45;;;;;;;9.98;5.75;;;10.10;75.90;;;;;;4893679;29;20501;-81
2022/04/19 07:15:12;;;;;;;9.77;5.50;;;10.10;75.90;;;;;;4893742;29;20419;-81
2022/04/19 07:17:41;;;;;;;11.32;5.45;;;10.10;76.00;;;;;;4895288;29;20053;-81
2022/04/19 07:28:25;;;;;;;13.40;6.13;;;10.20;76.20;;;;;;4893307;29;20494;-81
2022/04/19 07:30:51;;;;;;;9.85;6.03;;;10.30;76.20;;;;;;4893752;29;20096;-81
2022/04/19 07:33:18;;;;;;;12.65;7.15;;;10.40;76.30;;;;;;4894955;29;20105;-81
2022/04/19 07:35:46;;;;;;;12.15;6.00;;;10.40;76.30;;;;;;4894311;29;20053;-80
2022/04/19 07:38:13;;;;;;;9.93;6.15;;;10.40;76.40;;;;;;4896958;29;20056;-80
2022/04/19 07:40:40;;;;;;;10.50;6.25;;;10.40;76.40;;;;;;4892697;29;20105;-80
2022/04/19 07:43:07;;;;;;;15.80;7.10;;;10.40;76.40;;;;;;4892405;29;20626;-80
2022/04/19 07:45:34;;;;;;;11.68;6.47;;;10.40;76.40;;;;;;4894527;29;20506;-80
2022/04/19 07:48:04;;;;;;;12.93;7.70;;;10.50;76.50;;;;;;4893041;29;20455;-80
2022/04/19 07:50:31;;;;;;;13.25;6.72;;;10.60;76.50;;;;;;4895313;29;20494;-80
2022/04/19 07:52:58;;;;;;;14.18;7.20;;;10.60;76.50;;;;;;4896350;29;20052;-79
2022/04/19 07:55:24;;;;;;;15.30;7.40;;;10.60;76.60;;;;;;4894360;29;20052;-79
2022/04/19 07:57:52;;;;;;;13.00;7.07;;;10.70;76.50;;;;;;4893774;29;20080;-79
2022/04/19 08:00:19;;;;;;;12.45;7.07;;;10.70;76.50;;;;;;4892937;29;20044;-82
2022/04/19 08:02:47;;;;;;;15.40;7.88;;;10.70;76.50;;;;;;4893528;29;20068;-81
2022/04/19 08:05:15;;;;;;;13.60;7.22;;;10.80;76.50;;;;;;4896560;29;20096;-82
2022/04/19 08:07:42;;;;;;;17.50;8.68;;;10.90;76.50;;;;;;4893125;29;20104;-81
2022/04/19 08:10:09;;;;;;;13.75;7.15;;;10.90;76.60;;;;;;4892996;29;20076;-80
2022/04/19 08:12:36;;;;;;;16.88;9.30;;;10.90;76.60;;;;;;4892151;29;20048;-80
2022/04/19 08:15:04;;;;;;;12.82;7.38;;;11.00;76.60;;;;;;4893182;29;20124;-80
2022/04/19 08:17:34;;;;;;;13.63;7.78;;;11.00;76.70;;;;;;4895434;29;20048;-80
2022/04/19 08:20:02;;;;;;;14.55;7.75;;;11.10;76.70;;;;;;4898802;29;20048;-80
2022/04/19 08:22:30;;;;;;;13.27;7.53;;;11.20;76.70;;;;;;4895010;29;20447;-80
2022/04/19 08:24:57;;;;;;;13.30;7.00;;;11.20;76.70;;;;;;4892784;29;20108;-80
2022/04/19 08:27:24;;;;;;;11.30;6.90;;;11.30;76.70;;;;;;4892448;29;20084;-80
2022/04/19 08:29:51;;;;;;;13.00;6.80;;;11.40;76.60;;;;;;4893524;29;20459;-81
2022/04/19 08:32:18;;;;;;;14.05;7.20;;;11.40;76.50;;;;;;4892835;29;20056;-81
2022/04/19 08:34:45;;;;;;;12.70;6.90;;;11.50;76.40;;;;;;4892504;29;20056;-81
2022/04/19 08:37:12;;;;;;;15.73;7.07;;;11.60;76.30;;;;;;4892703;29;20108;-80
2022/04/19 08:39:39;;;;;;;13.43;7.13;;;11.60;76.20;;;;;;4892720;29;20506;-80
2022/04/19 08:42:06;;;;;;;14.70;6.65;;;11.70;76.20;;;;;;4892528;29;20511;-80
2022/04/19 08:44:35;;;;;;;11.88;6.85;;;11.80;76.00;;;;;;4895108;29;20105;-79
2022/04/19 08:47:06;;;;;;;13.32;6.50;;;11.90;75.90;;;;;;4894756;29;20053;-80
2022/04/19 08:49:41;;;;;;;12.38;6.65;;;11.90;75.80;;;;;;4892685;29;20510;-79
2022/04/19 08:52:11;;;;;;;10.48;6.00;;;12.10;75.70;;;;;;4893206;29;20056;-80
2022/04/19 08:57:29;;;;;;;13.27;6.65;;;12.30;75.40;;;;;;4896359;29;20052;-79
2022/04/19 08:59:58;;;;;;;9.63;6.03;;;12.40;75.20;;;;;;4904279;29;20056;-80
2022/04/19 09:02:29;;;;;;;11.20;6.78;;;12.50;75.10;;;;;;4899146;29;20104;-80
2022/04/19 09:05:26;;;;;;;13.65;6.65;;;12.60;74.90;;;;;;4897345;29;20052;-80
2022/04/19 09:07:55;;;;;;;10.77;5.85;;;12.70;74.80;;;;;;4899048;29;20052;-81
2022/04/19 09:10:33;;;;;;;11.25;5.68;;;12.80;74.50;;;;;;4897160;29;20052;-81
2022/04/19 09:13:07;;;;;;;9.68;5.60;;;12.90;74.40;;;;;;4895826;29;20063;-81
2022/04/19 09:15:45;;;;;;;9.90;5.30;;;13.00;74.20;;;;;;4897659;29;20430;-80
2022/04/19 09:18:21;;;;;;;10.88;5.32;;;13.20;74.00;;;;;;4896063;29;20418;-81
2022/04/19 09:20:52;;;;;;;8.80;5.18;;;13.30;73.80;;;;;;4896508;29;20474;-80
2022/04/19 09:23:19;;;;;;;8.10;5.20;;;13.40;73.60;;;;;;4895025;29;20051;-80
2022/04/19 09:25:50;;;;;;;9.70;5.40;;;13.50;73.40;;;;;;4895019;29;20516;-80
2022/04/19 09:28:19;;;;;;;10.63;5.40;;;13.60;73.20;;;;;;4895730;29;20101;-80
2022/04/19 09:30:48;;;;;;;12.55;5.45;;;13.70;72.90;;;;;;4895701;29;20502;-80
2022/04/19 09:33:18;;;;;;;7.55;4.85;;;13.90;72.70;;;;;;4895718;29;20049;-80
2022/04/19 09:35:54;;;;;;;7.22;4.60;;;14.00;72.40;;;;;;4896626;29;20506;-80
2022/04/19 09:38:38;;;;;;;10.02;5.00;;;14.10;72.20;;;;;;4895473;29;20056;-80
2022/04/19 09:41:07;;;;;;;10.43;5.07;;;14.30;71.90;;;;;;4898151;29;20053;-80
2022/04/19 09:44:05;;;;;;;10.25;5.28;;;14.40;71.70;;;;;;4898372;29;20140;-82
2022/04/19 09:46:32;;;;;;;8.07;4.90;;;14.50;71.30;;;;;;4895628;29;20048;-80
2022/04/19 09:48:59;;;;;;;8.40;4.82;;;14.60;71.10;;;;;;4895472;29;20059;-81
2022/04/19 09:51:34;;;;;;;9.55;4.60;;;14.70;70.80;;;;;;4895290;29;20081;-79
2022/04/19 09:54:01;;;;;;;8.10;4.53;;;14.90;70.50;;;;;;4895103;29;20060;-81
2022/04/19 09:56:36;;;;;;;7.90;4.05;;;14.90;70.20;;;;;;4897805;29;20051;-81
2022/04/19 09:59:17;;;;;;;9.50;4.35;;;15.10;69.80;;;;;;4898679;29;20085;-81
2022/04/19 10:10:06;;;;;;;8.55;3.92;;;15.50;68.70;;;;;;4895163;29;20108;-81
2022/04/19 10:12:33;;;;;;;6.93;4.00;;;15.70;68.40;;;;;;4896213;29;20054;-82
2022/04/19 10:15:06;;;;;;;10.00;4.35;;;15.80;68.20;;;;;;4895197;29;20108;-81
2022/04/19 10:17:35;;;;;;;7.30;3.88;;;15.90;67.90;;;;;;4896860;29;20497;-82
2022/04/19 10:20:04;;;;;;;9.18;3.92;;;16.00;67.70;;;;;;4897132;29;20048;-81
2022/04/19 10:22:32;;;;;;;8.15;3.97;;;16.10;67.50;;;;;;4894285;29;20422;-81
2022/04/19 10:25:02;;;;;;;5.93;3.60;;;16.20;67.20;;;;;;4895034;29;20228;-81
2022/04/19 10:27:32;;;;;;;11.40;4.30;;;16.40;67.00;;;;;;4896341;29;20131;-81
2022/04/19 10:30:01;;;;;;;8.57;3.85;;;16.40;66.70;;;;;;4894731;29;20060;-81
2022/04/19 10:32:33;;;;;;;8.02;3.90;;;16.50;66.40;;;;;;4897164;29;20501;-81
2022/04/19 10:35:04;;;;;;;7.20;4.30;;;16.60;66.20;;;;;;4896279;29;20139;-80
2022/04/19 10:37:31;;;;;;;13.88;4.88;;;16.70;65.90;;;;;;4894192;29;20073;-80
2022/04/19 10:39:58;;;;;;;10.73;3.97;;;16.90;65.70;;;;;;4893499;29;20417;-81
2022/04/19 10:42:29;;;;;;;9.02;3.67;;;16.90;65.40;;;;;;4894370;29;20048;-80
2022/04/19 10:44:56;;;;;;;7.45;3.78;;;17.10;65.10;;;;;;4894486;29;20053;-81
2022/04/19 10:47:24;;;;;;;7.30;3.80;;;17.20;64.90;;;;;;4897631;29;20514;-81
2022/04/19 10:49:59;;;;;;;6.28;2.92;;;17.30;64.70;;;;;;4894702;29;20120;-81
2022/04/19 10:52:39;;;;;;;8.98;4.10;;;17.40;64.40;;;;;;4893821;29;20057;-81
2022/04/19 10:55:07;;;;;;;9.35;4.00;;;17.50;64.10;;;;;;4894177;29;20086;-81
2022/04/19 11:00:47;;;;;;;8.13;3.80;;;17.70;63.50;;;;;;4894201;29;20045;-81
2022/04/19 11:03:33;;;;;;;7.70;4.30;;;17.80;63.30;;;;;;4895444;29;20056;-81
2022/04/19 11:06:03;;;;;;;8.18;4.43;;;17.90;63.00;;;;;;4893586;29;20412;-81
2022/04/19 11:08:36;;;;;;;8.48;4.15;;;18.00;62.70;;;;;;4896472;29;20052;-81
2022/04/19 11:11:04;;;;;;;7.78;4.15;;;18.10;62.50;;;;;;4896123;29;20052;-81
2022/04/19 11:13:36;;;;;;;7.75;4.18;;;18.20;62.30;;;;;;4892555;29;20060;-81
2022/04/19 11:16:06;;;;;;;8.18;4.43;;;18.30;62.10;;;;;;4886891;29;20056;-81
2022/04/19 11:18:53;;;;;;;7.85;4.07;;;18.40;61.80;;;;;;4893816;29;20505;-81
2022/04/19 11:21:56;;;;;;;9.82;4.25;;;18.50;61.50;;;;;;4894635;29;20047;-81
2022/04/19 11:24:58;;;;;;;9.02;4.25;;;18.60;61.10;;;;;;4893824;29;20052;-81
2022/04/19 11:27:53;;;;;;;8.27;3.97;;;18.70;60.80;;;;;;4897482;29;20056;-81
2022/04/19 11:30:22;;;;;;;7.22;4.55;;;18.80;60.40;;;;;;4897395;29;20052;-81
2022/04/19 11:32:51;;;;;;;12.27;4.57;;;18.90;60.10;;;;;;4894089;29;20056;-80
2022/04/19 11:35:19;;;;;;;9.98;4.18;;;18.90;59.80;;;;;;4893259;29;20433;-80
2022/04/19 11:37:47;;;;;;;9.00;4.63;;;18.90;59.50;;;;;;4893450;29;20045;-80
2022/04/19 11:48:49;;;;;;;12.90;4.68;;;19.20;58.30;;;;;;4893127;29;20048;-81
2022/04/19 11:51:19;;;;;;;9.38;4.13;;;19.30;58.00;;;;;;4893587;29;20052;-80
2022/04/19 11:53:47;;;;;;;9.80;4.47;;;19.30;57.80;;;;;;4894016;29;20463;-80
2022/04/19 11:56:16;;;;;;;7.90;4.50;;;19.40;57.60;;;;;;4896860;29;20112;-80
2022/04/19 11:58:49;;;;;;;9.30;4.75;;;19.50;57.40;;;;;;4893363;29;20060;-80
2022/04/19 12:01:16;;;;;;;8.05;4.35;;;19.50;57.20;;;;;;4892894;29;20076;-80
2022/04/19 12:03:43;;;;;;;7.05;3.92;;;19.60;57.00;;;;;;4893903;29;20041;-80
2022/04/19 12:06:11;;;;;;;7.60;4.07;;;19.70;56.80;;;;;;4893076;29;20069;-80
2022/04/19 12:08:40;;;;;;;7.13;4.10;;;19.80;56.60;;;;;;4894936;29;20100;-81
2022/04/19 12:11:10;;;;;;;9.10;4.35;;;19.80;56.40;;;;;;4895670;29;20528;-80
2022/04/19 12:13:38;;;;;;;8.63;3.85;;;19.90;56.30;;;;;;4892822;29;20116;-80
2022/04/19 12:16:09;;;;;;;8.27;4.47;;;19.90;56.00;;;;;;4893203;29;20057;-81
2022/04/19 12:18:38;;;;;;;9.45;3.92;;;20.00;55.80;;;;;;4892620;29;20506;-80
2022/04/19 12:21:06;;;;;;;8.57;4.35;;;20.10;55.60;;;;;;4894435;29;20132;-80
2022/04/19 12:23:34;;;;;;;8.70;4.40;;;20.20;55.40;;;;;;4894086;29;20417;-80
2022/04/19 12:26:10;;;;;;;11.10;5.22;;;20.30;55.20;;;;;;4893995;29;20060;-80
2022/04/19 12:28:43;;;;;;;11.40;5.28;;;20.30;54.90;;;;;;4895905;29;20590;-80
2022/04/19 12:31:32;;;;;;;7.43;5.15;;;20.30;54.40;;;;;;4896856;29;20462;-80
2022/04/19 12:34:01;;;;;;;12.88;5.53;;;20.40;54.00;;;;;;4896381;29;20068;-80
2022/04/19 12:36:29;;;;;;;9.35;4.88;;;20.40;53.80;;;;;;4896735;29;20076;-80
2022/04/19 12:39:02;;;;;;;8.45;4.95;;;20.40;53.50;;;;;;4896670;29;20813;-80
2022/04/19 12:41:40;;;;;;;8.50;4.38;;;20.40;53.30;;;;;;4898965;29;20474;-80
2022/04/19 12:44:08;;;;;;;8.75;4.95;;;20.50;53.20;;;;;;4899198;29;20096;-80
2022/04/19 12:46:40;;;;;;;10.48;4.53;;;20.50;53.10;;;;;;4896454;29;20057;-80
2022/04/19 12:49:07;;;;;;;8.43;3.97;;;20.60;53.00;;;;;;4896283;29;20048;-80
2022/04/19 12:51:37;;;;;;;9.20;4.13;;;20.60;52.90;;;;;;4896528;29;20116;-80
2022/04/19 12:54:06;;;;;;;7.97;4.50;;;20.60;52.80;;;;;;4896709;29;20109;-81
2022/04/19 12:56:33;;;;;;;10.45;4.80;;;20.70;52.70;;;;;;4898817;29;20116;-80
2022/04/19 12:59:00;;;;;;;7.78;5.03;;;20.70;52.70;;;;;;4898071;29;20113;-80
2022/04/19 13:01:27;;;;;;;7.35;4.35;;;20.70;52.50;;;;;;4897393;29;20053;-80
2022/04/19 13:03:55;;;;;;;10.90;5.53;;;20.80;52.30;;;;;;4896222;29;20056;-80
2022/04/19 13:14:38;;;;;;;8.43;5.05;;;20.80;51.50;;;;;;4859338;29;20049;-80
2022/04/19 13:17:05;;;;;;;9.30;4.60;;;20.90;51.20;;;;;;4860706;29;20511;-80
2022/04/19 13:19:31;;;;;;;8.70;4.75;;;20.90;51.10;;;;;;4858773;29;20054;-80
2022/04/19 13:21:58;;;;;;;11.98;5.30;;;20.90;50.90;;;;;;4858815;29;20046;-80
2022/04/19 13:24:25;;;;;;;8.63;5.43;;;20.90;50.80;;;;;;4860183;29;20053;-80
2022/04/19 13:26:53;;;;;;;9.38;5.07;;;20.90;50.60;;;;;;4859109;29;20053;-80
2022/04/19 13:29:20;;;;;;;10.93;5.15;;;20.90;50.30;;;;;;4857637;29;20105;-80
2022/04/19 13:31:46;;;;;;;9.90;5.13;;;20.90;50.20;;;;;;4858478;29;20056;-80
2022/04/19 13:34:14;;;;;;;9.23;5.30;;;20.90;50.10;;;;;;4858579;29;20102;-81
2022/04/19 13:36:42;;;;;;;9.05;5.47;;;20.90;50.00;;;;;;4858596;29;20049;-80
2022/04/19 13:39:09;;;;;;;10.27;4.82;;;20.90;49.90;;;;;;4858593;29;20054;-79
2022/04/19 13:41:38;;;;;;;9.70;5.25;;;20.90;49.70;;;;;;4860688;29;20061;-80
2022/04/19 13:44:07;;;;;;;9.35;5.53;;;21.00;49.60;;;;;;4860628;29;20137;-80
2022/04/19 13:46:34;;;;;;;10.55;5.55;;;21.00;49.50;;;;;;4858732;29;20090;-80